KOXV

Knoxville Municipal Airport

Knoxville, Iowa, USA
METAR KOXV 232315Z AUTO 28010KT 10SM OVC014 M03/M06 A3016 RMK AO2
Observed Flight Rules
Jan-23 @ 23:15 UTC (33 minutes ago) Marginal Visual Flight Rules
Wind Visibility Clouds
280° at 10 knots 10 miles
  • Overcast at 1,400' AGL
Temperatures Readings
Current -3°C / 27°F
Dewpoint -6°C / 21°F
Humidity 80%
Altimeter 30.16" Hg
Pressure 1021 hPa
Elevation 283
METAR KOXV 232315Z AUTO 28010KT 10SM OVC014 M03/M06 A3016 RMK AO2
Observed Flight Rules
Jan-23 @ 23:15 UTC
(33 minutes ago)
MVFR
Wind Visibility
280° at 10 knots 10 miles
Clouds
  • Overcast at 1,400' AGL
Temperature Dewpoint
-3°C / 27°F -6°C / 21°F
Humidity Altimeter Pressure
80% 30.16" Hg 1021 hPa